Time;durP1;ratioP1;P1;durP2;ratioP2;P2;SDS_P1;SDS_P2;PMS_P1;PMS_P2;Temp;Humidity;BMP_temperature;BMP_pressure;BME280_temperature;BME280_humidity;BME280_pressure;Samples;Min_cycle;Max_cycle;Signal;HPM_P1;HPM_P2
2021/12/19 00:00:20;;;;;;;24.73;10.50;;;7.50;99.90;;;;;;5003631;28;20404;-74
2021/12/19 00:03:02;;;;;;;19.95;9.85;;;7.50;99.90;;;;;;5002773;28;20075;-74
2021/12/19 00:10:57;;;;;;;15.70;9.30;;;7.50;99.90;;;;;;5006345;28;20041;-74
2021/12/19 00:13:25;;;;;;;15.90;8.57;;;7.50;99.90;;;;;;5004415;28;20068;-73
2021/12/19 00:15:51;;;;;;;14.48;8.43;;;7.50;99.90;;;;;;5007108;28;20049;-74
2021/12/19 00:18:17;;;;;;;15.57;8.90;;;7.60;99.90;;;;;;5004538;28;20048;-74
2021/12/19 00:20:43;;;;;;;17.92;8.82;;;7.60;99.90;;;;;;5008111;28;20037;-74
2021/12/19 00:23:09;;;;;;;17.45;9.02;;;7.70;99.90;;;;;;5005598;28;20041;-74
2021/12/19 00:25:35;;;;;;;17.15;8.15;;;7.60;99.90;;;;;;5004642;28;20079;-74
2021/12/19 00:28:00;;;;;;;19.73;9.48;;;7.60;99.90;;;;;;5003714;28;20037;-73
2021/12/19 00:30:26;;;;;;;15.48;8.98;;;7.60;99.90;;;;;;5006927;28;20117;-74
2021/12/19 00:32:51;;;;;;;17.20;9.05;;;7.60;99.90;;;;;;5005180;28;20029;-74
2021/12/19 00:35:17;;;;;;;19.65;9.65;;;7.60;99.90;;;;;;4986801;28;20052;-74
2021/12/19 00:37:43;;;;;;;16.92;9.18;;;7.60;99.90;;;;;;5005757;28;20049;-74
2021/12/19 00:40:10;;;;;;;17.45;9.38;;;7.60;99.90;;;;;;5003902;28;20433;-73
2021/12/19 00:42:37;;;;;;;19.08;8.95;;;7.60;99.90;;;;;;5004526;28;20102;-74
2021/12/19 00:45:16;;;;;;;19.73;9.27;;;7.60;99.90;;;;;;5004293;28;20136;-74
2021/12/19 00:47:45;;;;;;;21.70;10.50;;;7.60;99.90;;;;;;5003555;28;20120;-74
2021/12/19 00:50:13;;;;;;;19.13;9.40;;;7.50;99.90;;;;;;5005577;28;20057;-74
2021/12/19 00:52:40;;;;;;;23.10;11.13;;;7.50;99.90;;;;;;5005655;28;20048;-74
2021/12/19 00:55:06;;;;;;;22.15;11.07;;;7.60;99.90;;;;;;5006943;28;20056;-74
2021/12/19 00:57:33;;;;;;;21.98;10.85;;;7.60;99.90;;;;;;5002517;28;20053;-74
2021/12/19 00:59:58;;;;;;;25.67;11.07;;;7.60;99.90;;;;;;5002930;28;20045;-74
2021/12/19 01:02:24;;;;;;;22.70;11.02;;;7.60;99.90;;;;;;5003917;28;20045;-73
2021/12/19 01:04:50;;;;;;;25.00;11.32;;;7.60;99.90;;;;;;4988979;28;20408;-74
2021/12/19 01:07:16;;;;;;;25.58;12.57;;;7.60;99.90;;;;;;5004650;28;20033;-74
2021/12/19 01:09:41;;;;;;;26.10;11.88;;;7.70;99.90;;;;;;5002778;28;20045;-74
2021/12/19 01:12:10;;;;;;;23.40;11.00;;;7.70;99.90;;;;;;5000839;28;20858;-73
2021/12/19 01:14:37;;;;;;;25.08;12.20;;;7.60;99.90;;;;;;5005434;28;20135;-74
2021/12/19 01:17:04;;;;;;;28.05;12.10;;;7.60;99.90;;;;;;5006142;28;20041;-74
2021/12/19 01:19:29;;;;;;;23.30;11.55;;;7.60;99.90;;;;;;5005622;28;20045;-74
2021/12/19 01:21:55;;;;;;;26.65;11.07;;;7.60;99.90;;;;;;5022377;28;20488;-74
2021/12/19 01:24:21;;;;;;;23.50;10.00;;;7.60;99.90;;;;;;5003485;28;20416;-73
2021/12/19 01:26:46;;;;;;;16.10;9.32;;;7.70;99.90;;;;;;5006592;28;20492;-73
2021/12/19 01:29:13;;;;;;;17.42;8.90;;;7.70;99.90;;;;;;5002164;28;20463;-74
2021/12/19 01:31:39;;;;;;;16.77;9.25;;;7.60;99.90;;;;;;5000641;28;20095;-73
2021/12/19 01:34:04;;;;;;;16.38;8.77;;;7.60;99.90;;;;;;4987259;28;20045;-74
2021/12/19 01:36:31;;;;;;;20.50;9.93;;;7.60;99.90;;;;;;5002152;28;20542;-74
2021/12/19 01:38:56;;;;;;;19.85;9.43;;;7.60;99.90;;;;;;5001286;28;20425;-74
2021/12/19 01:41:22;;;;;;;16.50;8.73;;;7.60;99.90;;;;;;5006400;28;20071;-73
2021/12/19 01:43:48;;;;;;;12.25;7.60;;;7.60;99.90;;;;;;5004584;28;20037;-74
2021/12/19 01:46:13;;;;;;;13.35;7.18;;;7.70;99.90;;;;;;5005117;28;20497;-74
2021/12/19 01:48:40;;;;;;;8.35;5.32;;;7.70;99.90;;;;;;5006892;28;20083;-74
2021/12/19 01:51:06;;;;;;;8.43;4.85;;;7.70;99.90;;;;;;5004392;28;20431;-74
2021/12/19 01:53:32;;;;;;;8.05;4.40;;;7.70;99.90;;;;;;5023688;28;20400;-74
2021/12/19 01:55:59;;;;;;;8.48;3.85;;;7.70;99.90;;;;;;5007322;28;20038;-74
2021/12/19 01:58:24;;;;;;;6.47;4.07;;;7.70;99.90;;;;;;5003548;28;20042;-74
2021/12/19 02:00:54;;;;;;;7.40;3.50;;;7.70;99.90;;;;;;5000789;28;20050;-74
2021/12/19 02:03:21;;;;;;;6.53;3.30;;;7.70;99.90;;;;;;5002208;28;20081;-74
2021/12/19 02:05:47;;;;;;;6.45;3.03;;;7.60;99.90;;;;;;5002436;28;20471;-74
2021/12/19 02:08:13;;;;;;;3.92;2.80;;;7.60;99.90;;;;;;5004733;28;20168;-74
2021/12/19 02:10:40;;;;;;;4.90;2.85;;;7.60;99.90;;;;;;5004731;28;20381;-74
2021/12/19 02:13:09;;;;;;;3.28;2.22;;;7.70;99.90;;;;;;5004049;28;20030;-73
2021/12/19 02:15:35;;;;;;;4.97;2.20;;;7.60;99.90;;;;;;5007839;28;20037;-74
2021/12/19 02:18:06;;;;;;;2.60;1.80;;;7.60;99.90;;;;;;5003865;28;20037;-74
2021/12/19 02:20:41;;;;;;;3.92;1.67;;;7.60;99.90;;;;;;5005344;28;20148;-74
2021/12/19 02:23:09;;;;;;;2.95;1.60;;;7.60;99.90;;;;;;4988258;28;20037;-73
2021/12/19 02:25:36;;;;;;;3.25;1.85;;;7.70;99.90;;;;;;5007651;28;20516;-74
2021/12/19 02:28:02;;;;;;;2.17;1.67;;;7.60;99.90;;;;;;5006510;28;20095;-74
2021/12/19 02:30:28;;;;;;;1.98;1.45;;;7.50;99.90;;;;;;5008436;28;20042;-74
2021/12/19 02:32:54;;;;;;;1.40;1.30;;;7.60;99.90;;;;;;5009364;28;20041;-74
2021/12/19 02:35:26;;;;;;;3.13;1.30;;;7.50;99.90;;;;;;4991827;28;20041;-74
2021/12/19 02:38:16;;;;;;;1.67;1.30;;;7.60;99.90;;;;;;5008630;28;20404;-74
2021/12/19 02:48:33;;;;;;;3.45;1.60;;;7.50;99.90;;;;;;5007833;28;20438;-74
2021/12/19 02:51:00;;;;;;;3.05;2.50;;;7.50;99.90;;;;;;5007294;28;20124;-74
2021/12/19 02:53:35;;;;;;;3.22;1.70;;;7.50;99.90;;;;;;5000443;28;20034;-74
2021/12/19 02:56:04;;;;;;;2.42;1.60;;;7.50;99.90;;;;;;5007772;28;20050;-74
2021/12/19 02:58:29;;;;;;;2.92;1.60;;;7.50;99.90;;;;;;5007555;28;20042;-74
2021/12/19 03:00:56;;;;;;;2.58;1.40;;;7.50;99.90;;;;;;5010023;28;20041;-74
2021/12/19 03:03:22;;;;;;;2.10;1.50;;;7.50;99.90;;;;;;5009709;28;20045;-74
2021/12/19 03:05:48;;;;;;;2.88;1.30;;;7.50;99.90;;;;;;5006399;28;20520;-74
2021/12/19 03:08:14;;;;;;;1.10;1.00;;;7.40;99.90;;;;;;5007909;28;20057;-74
2021/12/19 03:18:27;;;;;;;4.47;1.63;;;7.40;99.90;;;;;;5005214;28;20083;-74
2021/12/19 03:20:53;;;;;;;2.28;1.50;;;7.40;99.90;;;;;;5004842;28;20145;-74
2021/12/19 03:23:19;;;;;;;2.08;1.50;;;7.40;99.90;;;;;;5004710;28;20111;-74
2021/12/19 03:25:45;;;;;;;2.60;1.95;;;7.40;99.90;;;;;;5009320;28;20496;-74
2021/12/19 03:28:12;;;;;;;3.38;1.88;;;7.40;99.90;;;;;;5006535;28;20484;-74
2021/12/19 03:30:41;;;;;;;3.38;1.83;;;7.40;99.90;;;;;;5008898;28;20042;-74
2021/12/19 03:33:07;;;;;;;3.42;1.80;;;7.40;99.90;;;;;;5022524;28;20033;-75
2021/12/19 03:35:33;;;;;;;2.35;1.77;;;7.40;99.90;;;;;;5007789;28;20099;-75
2021/12/19 03:38:03;;;;;;;2.55;1.85;;;7.40;99.90;;;;;;5005771;28;20077;-75
2021/12/19 03:40:35;;;;;;;2.75;1.70;;;7.40;99.90;;;;;;4990928;28;20128;-75
2021/12/19 03:43:21;;;;;;;;;;;7.40;99.90;;;;;;5009623;28;20546;-75
2021/12/19 03:45:47;;;;;;;4.13;2.00;;;7.40;99.90;;;;;;5008206;28;19925;-75
2021/12/19 03:48:15;;;;;;;4.18;1.88;;;7.40;99.90;;;;;;5007212;28;20607;-75
2021/12/19 03:50:49;;;;;;;3.20;1.63;;;7.40;99.90;;;;;;5008843;28;20039;-75
2021/12/19 03:53:17;;;;;;;3.97;2.25;;;7.40;99.90;;;;;;5007009;28;21481;-75
2021/12/19 03:55:44;;;;;;;2.83;1.83;;;7.40;99.90;;;;;;5005719;28;20065;-75
2021/12/19 03:58:11;;;;;;;3.33;1.80;;;7.40;99.90;;;;;;5006159;28;20132;-75
2021/12/19 04:00:37;;;;;;;2.20;1.40;;;7.40;99.90;;;;;;5006197;28;20038;-75
2021/12/19 04:03:06;;;;;;;2.70;1.30;;;7.40;99.90;;;;;;5004079;28;20037;-75
2021/12/19 04:05:33;;;;;;;2.35;1.70;;;7.50;99.90;;;;;;5003667;28;20073;-75
2021/12/19 04:07:59;;;;;;;4.90;1.55;;;7.40;99.90;;;;;;4989456;28;20041;-75
2021/12/19 04:10:27;;;;;;;3.03;2.00;;;7.40;99.90;;;;;;5002994;28;20091;-75
2021/12/19 04:12:54;;;;;;;3.72;2.50;;;7.40;99.90;;;;;;5004494;28;20084;-75
2021/12/19 04:15:21;;;;;;;5.95;2.55;;;7.30;99.90;;;;;;5004036;28;20068;-75
2021/12/19 04:17:47;;;;;;;6.38;2.60;;;7.40;99.90;;;;;;5008006;28;20048;-75
2021/12/19 04:20:15;;;;;;;6.40;2.63;;;7.30;99.90;;;;;;5007810;28;20037;-75
2021/12/19 04:22:42;;;;;;;6.35;2.80;;;7.30;99.90;;;;;;5009201;28;20077;-75
2021/12/19 04:25:09;;;;;;;6.80;3.20;;;7.30;99.90;;;;;;5006567;28;20037;-75
2021/12/19 04:27:36;;;;;;;6.57;3.00;;;7.30;99.90;;;;;;5025926;28;20041;-75
2021/12/19 04:30:08;;;;;;;9.02;3.67;;;7.30;99.90;;;;;;5003087;28;20033;-75
2021/12/19 04:32:39;;;;;;;7.75;3.30;;;7.30;99.90;;;;;;5003993;28;20079;-74
2021/12/19 04:35:05;;;;;;;6.13;3.25;;;7.30;99.90;;;;;;5003671;28;20128;-74
2021/12/19 04:40:26;;;;;;;7.88;3.22;;;7.40;99.90;;;;;;5001673;28;20812;-74
2021/12/19 04:56:40;;;;;;;4.10;2.10;;;7.20;99.90;;;;;;4989930;28;20124;-74
2021/12/19 05:14:52;;;;;;;3.08;1.60;;;7.10;99.90;;;;;;5002449;28;20049;-74
2021/12/19 05:17:23;;;;;;;3.42;1.90;;;7.10;99.90;;;;;;5004582;28;20084;-74
2021/12/19 05:20:04;;;;;;;4.35;2.00;;;7.20;99.90;;;;;;4987918;28;20049;-74
2021/12/19 05:22:34;;;;;;;4.95;1.60;;;7.10;99.90;;;;;;5003811;28;20048;-74
2021/12/19 05:25:07;;;;;;;3.97;1.67;;;7.00;99.90;;;;;;5003990;28;20042;-74
2021/12/19 05:27:33;;;;;;;2.58;1.67;;;7.20;99.90;;;;;;5020316;28;20037;-74
2021/12/19 05:29:59;;;;;;;4.47;1.40;;;7.20;99.90;;;;;;5004651;28;20045;-73
2021/12/19 05:32:25;;;;;;;3.55;1.80;;;7.20;99.90;;;;;;5006715;28;20064;-74
2021/12/19 05:34:51;;;;;;;2.47;1.50;;;7.20;99.90;;;;;;5001346;28;20060;-74
2021/12/19 05:45:29;;;;;;;5.55;2.40;;;7.20;99.90;;;;;;5005105;28;20041;-74
2021/12/19 05:47:55;;;;;;;3.60;2.15;;;7.20;99.90;;;;;;5006488;28;20087;-74
2021/12/19 05:50:22;;;;;;;7.40;2.78;;;7.10;99.90;;;;;;5006854;28;20053;-74
2021/12/19 05:52:49;;;;;;;9.57;2.55;;;7.10;99.90;;;;;;5023040;28;20034;-74
2021/12/19 05:55:16;;;;;;;9.23;3.22;;;7.20;99.90;;;;;;5006075;28;20054;-74
2021/12/19 05:57:42;;;;;;;8.20;3.78;;;7.20;99.90;;;;;;5004354;28;20048;-74
2021/12/19 06:00:12;;;;;;;11.88;4.13;;;7.20;99.90;;;;;;5005694;28;20049;-74
2021/12/19 06:02:40;;;;;;;9.27;4.20;;;7.20;99.90;;;;;;5009703;28;20084;-74
2021/12/19 06:05:07;;;;;;;15.55;4.15;;;7.20;99.90;;;;;;4989806;28;20048;-74
2021/12/19 06:07:33;;;;;;;11.82;4.30;;;7.20;99.90;;;;;;5009867;28;20046;-74
2021/12/19 06:09:59;;;;;;;11.38;4.90;;;7.30;99.90;;;;;;5024144;28;20044;-74
2021/12/19 06:12:25;;;;;;;13.15;4.90;;;7.30;99.90;;;;;;5012402;28;20037;-74
2021/12/19 06:14:51;;;;;;;9.88;5.20;;;7.20;99.90;;;;;;5008637;28;20040;-74
2021/12/19 06:17:17;;;;;;;17.58;5.18;;;7.30;99.90;;;;;;5009009;28;20045;-74
2021/12/19 06:19:43;;;;;;;12.35;5.13;;;7.30;99.90;;;;;;5008364;28;20045;-74
2021/12/19 06:22:08;;;;;;;15.10;4.60;;;7.20;99.90;;;;;;5009991;28;20045;-74
2021/12/19 06:24:35;;;;;;;12.93;4.60;;;7.20;99.90;;;;;;5009758;28;20120;-74
2021/12/19 06:27:02;;;;;;;15.85;5.20;;;7.20;99.90;;;;;;5008903;28;20045;-74
2021/12/19 06:29:29;;;;;;;14.93;5.60;;;7.20;99.90;;;;;;5007511;28;20124;-75
2021/12/19 06:31:55;;;;;;;13.52;5.20;;;7.20;99.90;;;;;;5006669;28;20034;-75
2021/12/19 06:34:21;;;;;;;14.40;5.70;;;7.20;99.90;;;;;;5010082;28;20034;-74
2021/12/19 06:36:47;;;;;;;8.13;5.13;;;7.20;99.90;;;;;;5009292;28;20037;-74
2021/12/19 06:39:13;;;;;;;15.80;6.20;;;7.30;99.90;;;;;;5010246;28;20040;-74
2021/12/19 06:41:39;;;;;;;18.80;8.13;;;7.30;99.90;;;;;;5006321;28;20048;-74
2021/12/19 06:44:05;;;;;;;25.08;9.82;;;7.30;99.90;;;;;;5007741;28;20041;-74
2021/12/19 06:46:31;;;;;;;23.63;9.60;;;7.30;99.90;;;;;;5018278;28;20081;-74
2021/12/19 06:48:57;;;;;;;22.35;10.35;;;7.30;99.90;;;;;;5005371;28;20038;-74
2021/12/19 06:51:23;;;;;;;27.13;11.20;;;7.30;99.90;;;;;;5007132;28;20049;-74
2021/12/19 06:53:49;;;;;;;24.52;11.25;;;7.30;99.90;;;;;;5007066;28;20033;-74
2021/12/19 06:56:15;;;;;;;26.35;10.68;;;7.30;99.90;;;;;;5004225;28;20077;-74
2021/12/19 06:58:42;;;;;;;24.15;11.30;;;7.30;99.90;;;;;;5007056;28;20074;-74
2021/12/19 07:01:07;;;;;;;28.00;12.50;;;7.30;99.90;;;;;;5028990;28;20064;-74
2021/12/19 07:03:33;;;;;;;31.05;11.05;;;7.40;99.90;;;;;;5007300;28;20049;-74
2021/12/19 07:06:00;;;;;;;31.05;11.75;;;7.30;99.90;;;;;;4989739;28;20136;-74
2021/12/19 07:08:26;;;;;;;34.63;12.60;;;7.30;99.90;;;;;;5009734;28;20037;-75
2021/12/19 07:10:51;;;;;;;32.42;12.55;;;7.40;99.90;;;;;;5003857;28;20041;-75
2021/12/19 07:13:20;;;;;;;30.15;12.43;;;7.40;99.90;;;;;;5006646;28;20473;-75
2021/12/19 07:15:54;;;;;;;34.25;11.90;;;7.30;99.90;;;;;;5007558;28;20051;-75
2021/12/19 07:18:20;;;;;;;30.45;13.43;;;7.30;99.90;;;;;;5006521;28;20128;-74
2021/12/19 07:20:45;;;;;;;34.78;12.93;;;7.30;99.90;;;;;;5009109;28;20500;-74
2021/12/19 07:23:18;;;;;;;33.30;12.90;;;7.30;99.90;;;;;;5005846;28;20057;-75
2021/12/19 07:25:44;;;;;;;28.15;12.45;;;7.30;99.90;;;;;;5007829;28;20039;-75
2021/12/19 07:28:10;;;;;;;31.92;12.80;;;7.30;99.90;;;;;;5008585;28;20048;-75
2021/12/19 07:30:37;;;;;;;32.33;12.65;;;7.30;99.90;;;;;;5008771;28;20042;-75
2021/12/19 07:33:04;;;;;;;37.88;12.02;;;7.30;99.90;;;;;;5007425;28;20069;-75
2021/12/19 07:35:31;;;;;;;35.10;11.98;;;7.30;99.90;;;;;;5005334;28;20041;-75
2021/12/19 07:37:57;;;;;;;37.78;11.30;;;7.30;99.90;;;;;;5005651;28;20069;-75
2021/12/19 07:40:24;;;;;;;25.98;10.23;;;7.30;99.90;;;;;;5007397;28;20088;-75
2021/12/19 07:42:52;;;;;;;28.15;9.98;;;7.30;99.90;;;;;;5026471;28;20087;-74
2021/12/19 07:45:18;;;;;;;22.95;8.18;;;7.30;99.90;;;;;;5022136;28;20046;-74
2021/12/19 07:47:44;;;;;;;26.83;8.48;;;7.40;99.90;;;;;;5007745;28;20045;-75
2021/12/19 07:50:12;;;;;;;21.65;7.40;;;7.30;99.90;;;;;;5003864;28;20077;-75
2021/12/19 07:52:38;;;;;;;17.77;7.20;;;7.30;99.90;;;;;;5002877;28;20038;-75
2021/12/19 07:55:05;;;;;;;21.85;6.90;;;7.30;99.90;;;;;;5010423;28;20124;-75
2021/12/19 07:57:31;;;;;;;20.13;7.30;;;7.30;99.90;;;;;;5008473;28;20034;-75
2021/12/19 07:59:57;;;;;;;17.83;7.13;;;7.40;99.90;;;;;;5009466;28;20037;-75
2021/12/19 08:02:22;;;;;;;25.40;7.00;;;7.30;99.90;;;;;;5006059;28;20060;-75
2021/12/19 08:04:48;;;;;;;20.73;6.53;;;7.40;99.90;;;;;;5004724;28;20053;-75
2021/12/19 08:07:16;;;;;;;19.25;7.20;;;7.30;99.90;;;;;;5003088;28;20071;-75
2021/12/19 08:09:59;;;;;;;16.38;7.03;;;7.40;99.90;;;;;;5004845;28;20049;-75
2021/12/19 08:12:26;;;;;;;23.30;6.10;;;7.30;99.90;;;;;;5004323;28;20038;-75
2021/12/19 08:14:51;;;;;;;17.13;5.93;;;7.40;99.90;;;;;;5007145;28;20046;-75
2021/12/19 08:17:17;;;;;;;21.27;6.60;;;7.40;99.90;;;;;;5004397;28;20496;-75
2021/12/19 08:19:43;;;;;;;18.42;5.85;;;7.40;99.90;;;;;;4989139;28;20069;-74
2021/12/19 08:22:09;;;;;;;24.63;5.75;;;7.30;99.90;;;;;;5004258;28;20038;-74
2021/12/19 08:24:35;;;;;;;20.80;6.20;;;7.40;99.90;;;;;;5004994;28;20083;-74
2021/12/19 08:27:02;;;;;;;17.50;5.93;;;7.30;99.90;;;;;;5005253;28;20475;-74
2021/12/19 08:29:27;;;;;;;20.17;6.28;;;7.30;99.90;;;;;;5007902;28;20033;-74
2021/12/19 08:31:53;;;;;;;16.63;5.82;;;7.30;99.90;;;;;;5001859;28;20042;-75
2021/12/19 08:34:19;;;;;;;17.88;5.55;;;7.30;99.90;;;;;;5005741;28;20053;-75
2021/12/19 08:36:45;;;;;;;20.42;5.38;;;7.30;99.90;;;;;;5005476;28;20167;-75
2021/12/19 08:39:12;;;;;;;17.27;5.55;;;7.30;99.90;;;;;;5004304;28;20041;-75
2021/12/19 08:41:39;;;;;;;21.92;5.43;;;7.30;99.90;;;;;;5005153;28;20051;-74
2021/12/19 08:44:04;;;;;;;22.70;6.20;;;7.30;99.90;;;;;;5008286;28;20041;-75
2021/12/19 08:46:32;;;;;;;18.75;5.68;;;7.30;99.90;;;;;;5007619;28;20068;-75
2021/12/19 08:48:59;;;;;;;14.02;4.85;;;7.30;99.90;;;;;;5024663;28;20037;-76
2021/12/19 08:51:26;;;;;;;23.77;6.82;;;7.30;99.90;;;;;;5008915;28;20030;-75
2021/12/19 08:53:53;;;;;;;16.38;5.35;;;7.30;99.90;;;;;;5003251;28;20025;-75
2021/12/19 08:56:18;;;;;;;42.45;21.60;;;7.30;99.90;;;;;;4999903;28;20038;-75
2021/12/19 08:58:44;;;;;;;29.38;15.63;;;7.40;99.90;;;;;;5002953;28;20484;-76
2021/12/19 09:01:09;;;;;;;25.10;12.32;;;7.40;99.90;;;;;;5000486;28;20956;-75
2021/12/19 09:03:36;;;;;;;26.60;14.38;;;7.40;99.90;;;;;;5002944;28;20052;-75
2021/12/19 09:06:03;;;;;;;55.58;29.73;;;7.40;99.90;;;;;;4992290;28;20033;-76
2021/12/19 09:08:29;;;;;;;38.70;19.55;;;7.50;99.90;;;;;;5005637;28;20120;-75
2021/12/19 09:10:57;;;;;;;23.35;8.32;;;7.40;99.90;;;;;;5004866;28;20117;-75
2021/12/19 09:13:23;;;;;;;22.45;8.30;;;7.40;99.90;;;;;;5005860;28;20052;-75
2021/12/19 09:15:49;;;;;;;102.38;73.55;;;7.50;99.90;;;;;;5004283;28;20038;-75
2021/12/19 09:18:15;;;;;;;27.95;12.98;;;7.40;99.90;;;;;;5020264;28;20045;-75
2021/12/19 09:20:41;;;;;;;26.75;19.67;;;7.40;99.90;;;;;;5006601;28;20053;-76
2021/12/19 09:23:08;;;;;;;27.63;17.33;;;7.50;99.90;;;;;;5007003;28;20077;-78
2021/12/19 09:25:35;;;;;;;52.70;37.95;;;7.50;99.90;;;;;;4990906;28;20131;-76
2021/12/19 09:28:01;;;;;;;19.40;7.63;;;7.50;99.90;;;;;;4991994;28;20061;-76
2021/12/19 09:30:27;;;;;;;97.38;77.22;;;7.50;99.90;;;;;;5006759;28;20143;-76
2021/12/19 09:32:53;;;;;;;28.00;10.52;;;7.50;99.90;;;;;;5010765;28;20184;-77
2021/12/19 09:35:19;;;;;;;68.10;49.80;;;7.50;99.90;;;;;;5013352;28;20408;-77
2021/12/19 09:37:48;;;;;;;38.47;23.42;;;7.50;99.90;;;;;;5012650;28;20099;-76
2021/12/19 09:40:20;;;;;;;32.90;17.27;;;7.60;99.90;;;;;;5010384;28;20128;-76
2021/12/19 09:42:49;;;;;;;65.80;36.63;;;7.60;99.90;;;;;;5010374;28;20033;-76
2021/12/19 09:45:16;;;;;;;30.05;13.30;;;7.60;99.90;;;;;;5009944;28;20309;-74
2021/12/19 09:47:42;;;;;;;49.72;25.58;;;7.60;99.90;;;;;;5004326;28;20033;-75
2021/12/19 09:50:09;;;;;;;25.15;10.88;;;7.60;99.90;;;;;;5011656;28;20046;-74
2021/12/19 09:52:35;;;;;;;25.05;12.10;;;7.60;99.90;;;;;;5008309;28;20040;-75
2021/12/19 09:55:01;;;;;;;29.50;10.98;;;7.60;99.90;;;;;;5008783;28;20121;-74
2021/12/19 09:57:27;;;;;;;25.70;10.02;;;7.60;99.90;;;;;;5009699;28;20037;-79
2021/12/19 09:59:52;;;;;;;72.95;54.42;;;7.60;99.90;;;;;;5014135;28;20037;-79
2021/12/19 10:02:19;;;;;;;56.05;35.92;;;7.60;99.90;;;;;;5012391;28;20045;-77
2021/12/19 10:04:45;;;;;;;27.77;16.40;;;7.70;99.90;;;;;;5012819;28;20040;-78
2021/12/19 10:07:28;;;;;;;27.20;15.48;;;7.70;99.90;;;;;;4990823;28;20665;-79
2021/12/19 10:10:12;;;;;;;19.90;6.63;;;7.70;99.90;;;;;;5003170;28;20141;-78
2021/12/19 10:12:49;;;;;;;26.35;11.43;;;7.70;99.90;;;;;;5028567;28;20061;-79
2021/12/19 10:15:17;;;;;;;17.42;8.05;;;7.80;99.90;;;;;;5008722;28;20042;-78
2021/12/19 10:17:43;;;;;;;21.52;8.25;;;7.80;99.90;;;;;;5005469;28;20057;-74
2021/12/19 10:20:49;;;;;;;19.95;6.38;;;7.90;99.90;;;;;;5010285;28;20115;-82
2021/12/19 10:23:21;;;;;;;23.05;6.57;;;7.80;99.90;;;;;;4997586;28;20157;-82
2021/12/19 10:26:02;;;;;;;15.63;6.38;;;7.80;99.90;;;;;;4997769;28;20037;-82
2021/12/19 10:28:30;;;;;;;20.25;6.50;;;7.90;99.90;;;;;;4981903;28;20120;-82
2021/12/19 10:30:58;;;;;;;17.40;6.40;;;7.80;99.90;;;;;;5014862;28;20047;-82
2021/12/19 10:33:45;;;;;;;21.08;9.50;;;7.80;99.90;;;;;;5016416;28;21892;-82
2021/12/19 10:36:13;;;;;;;16.92;6.10;;;7.80;99.90;;;;;;5011756;28;20053;-81
2021/12/19 10:38:48;;;;;;;16.25;4.03;;;7.80;99.90;;;;;;4979213;28;20432;-82
2021/12/19 10:41:20;;;;;;;16.83;5.63;;;7.80;99.90;;;;;;5032700;28;20045;-83
2021/12/19 10:43:59;;;;;;;16.77;5.30;;;7.80;99.90;;;;;;4997922;28;20484;-82
2021/12/19 10:46:39;;;;;;;13.80;4.45;;;7.80;99.90;;;;;;5012593;28;20045;-83
2021/12/19 10:49:20;;;;;;;14.18;5.50;;;7.80;99.90;;;;;;5028463;28;20107;-82
2021/12/19 10:51:48;;;;;;;21.27;12.88;;;7.80;99.90;;;;;;4995802;28;20516;-82
2021/12/19 10:54:14;;;;;;;16.25;5.18;;;7.80;99.90;;;;;;4994432;28;20700;-81
2021/12/19 10:56:41;;;;;;;18.67;6.63;;;7.80;99.90;;;;;;4993886;28;20125;-81
2021/12/19 10:59:14;;;;;;;14.63;4.65;;;7.90;99.90;;;;;;5008481;28;20122;-83
2021/12/19 11:01:41;;;;;;;;;;;7.80;99.90;;;;;;4993054;28;20168;-82
2021/12/19 11:04:16;;;;;;;13.77;4.65;;;7.90;99.90;;;;;;4981838;28;19920;-82
2021/12/19 11:06:49;;;;;;;15.05;6.47;;;7.90;99.90;;;;;;4995284;28;20040;-82
2021/12/19 11:09:24;;;;;;;19.05;6.97;;;7.90;99.90;;;;;;4992919;28;20045;-82
2021/12/19 11:12:05;;;;;;;24.45;13.02;;;7.90;99.90;;;;;;4993043;28;20116;-81
2021/12/19 11:14:38;;;;;;;15.52;4.60;;;7.90;99.90;;;;;;5010085;28;20041;-83
2021/12/19 11:17:26;;;;;;;11.75;3.97;;;7.90;99.90;;;;;;4975500;28;20396;-82
2021/12/19 11:19:55;;;;;;;49.40;28.10;;;7.90;99.90;;;;;;4989696;28;20041;-75
2021/12/19 11:22:25;;;;;;;212.43;127.72;;;8.00;99.90;;;;;;5004985;28;20127;-74
2021/12/19 11:24:58;;;;;;;326.85;173.45;;;8.00;99.90;;;;;;5006805;28;20045;-74
2021/12/19 11:27:25;;;;;;;121.78;52.97;;;8.10;99.90;;;;;;5003122;28;20037;-74
2021/12/19 11:29:52;;;;;;;147.18;65.10;;;8.00;99.90;;;;;;5001636;28;20042;-74
2021/12/19 11:32:20;;;;;;;37.80;16.13;;;8.10;99.90;;;;;;5006035;28;20173;-74
2021/12/19 11:34:52;;;;;;;24.95;11.52;;;8.10;99.90;;;;;;5005625;28;20037;-74
2021/12/19 11:37:22;;;;;;;196.30;149.23;;;8.10;99.90;;;;;;4975164;28;20056;-74
2021/12/19 11:39:54;;;;;;;26.02;10.13;;;8.10;99.90;;;;;;5006077;28;20048;-74
2021/12/19 11:42:33;;;;;;;16.67;5.37;;;8.10;99.90;;;;;;5022225;28;20060;-74
2021/12/19 11:47:42;;;;;;;36.60;22.17;;;8.20;99.90;;;;;;5003599;28;20049;-74
2021/12/19 11:50:20;;;;;;;31.77;11.88;;;8.20;99.90;;;;;;5005313;28;20083;-75
2021/12/19 11:52:47;;;;;;;37.70;21.55;;;8.30;99.90;;;;;;5004828;28;20435;-74
2021/12/19 11:55:32;;;;;;;57.25;37.78;;;8.30;99.90;;;;;;5008703;28;20048;-73
2021/12/19 11:58:07;;;;;;;21.52;7.80;;;8.20;99.90;;;;;;5003265;28;20057;-74
2021/12/19 12:00:40;;;;;;;18.42;5.88;;;8.20;99.90;;;;;;5021929;28;20065;-74
2021/12/19 12:03:13;;;;;;;34.17;17.58;;;8.30;99.90;;;;;;5003260;28;20045;-74
2021/12/19 12:05:46;;;;;;;16.48;7.68;;;8.30;99.90;;;;;;4990064;28;20507;-74
2021/12/19 12:08:17;;;;;;;18.83;5.40;;;8.30;99.90;;;;;;5004070;28;20045;-74
2021/12/19 12:10:55;;;;;;;22.10;6.45;;;8.40;99.90;;;;;;5008313;28;20151;-74
2021/12/19 12:13:33;;;;;;;20.60;4.97;;;8.40;99.90;;;;;;5001947;28;20065;-74
2021/12/19 12:18:40;;;;;;;18.95;4.13;;;8.30;99.90;;;;;;5002393;28;20051;-74
2021/12/19 12:23:59;;;;;;;12.55;3.83;;;8.30;99.90;;;;;;5003775;28;20076;-74
2021/12/19 12:26:33;;;;;;;16.67;3.53;;;8.30;99.90;;;;;;5005717;28;20500;-74
2021/12/19 12:28:58;;;;;;;19.85;3.25;;;8.30;99.90;;;;;;5004232;28;20049;-74
2021/12/19 12:31:24;;;;;;;18.10;3.60;;;8.30;99.90;;;;;;5005640;28;20033;-74
2021/12/19 12:33:51;;;;;;;19.55;4.40;;;8.30;99.90;;;;;;5005232;28;20037;-74
2021/12/19 12:36:17;;;;;;;16.90;4.43;;;8.30;99.90;;;;;;5002287;28;20069;-74
2021/12/19 12:38:46;;;;;;;20.30;5.40;;;8.30;99.90;;;;;;5003456;28;20395;-74
2021/12/19 12:41:27;;;;;;;21.77;6.15;;;8.30;99.90;;;;;;5002247;28;20124;-74
2021/12/19 12:43:54;;;;;;;17.77;4.45;;;8.30;99.90;;;;;;5004228;28;20055;-74
2021/12/19 12:46:22;;;;;;;42.00;17.63;;;8.30;99.90;;;;;;5002139;28;20132;-73
2021/12/19 12:49:00;;;;;;;80.45;39.72;;;8.40;99.90;;;;;;5005197;28;20060;-75
2021/12/19 12:51:30;;;;;;;273.13;153.38;;;8.30;99.90;;;;;;5001635;28;20462;-74
2021/12/19 12:54:36;;;;;;;;;;;;;;;;;;;;;
2021/12/19 12:57:14;;;;;;;37.67;11.90;;;8.30;99.90;;;;;;5005654;28;20041;-83
2021/12/19 12:59:45;;;;;;;46.05;21.48;;;8.30;99.90;;;;;;4993143;28;20061;-74
2021/12/19 13:02:20;;;;;;;46.38;19.77;;;8.30;99.90;;;;;;5002048;28;20399;-74
2021/12/19 13:04:51;;;;;;;69.30;42.55;;;8.30;99.90;;;;;;5003708;28;20037;-74
2021/12/19 13:07:18;;;;;;;19.50;8.50;;;8.30;99.90;;;;;;4999480;28;20037;-74
2021/12/19 13:09:51;;;;;;;88.68;51.78;;;8.30;99.90;;;;;;5003226;28;20030;-74
2021/12/19 13:12:21;;;;;;;45.58;23.42;;;8.30;99.90;;;;;;5004489;28;20074;-74
2021/12/19 13:14:53;;;;;;;66.63;36.08;;;8.30;99.90;;;;;;5003768;28;20041;-74
2021/12/19 13:17:34;;;;;;;40.17;18.90;;;8.40;99.90;;;;;;4992309;28;20077;-74
2021/12/19 13:20:14;;;;;;;73.40;38.60;;;8.30;99.90;;;;;;5007870;28;20097;-74
2021/12/19 13:22:58;;;;;;;57.53;26.55;;;8.30;99.90;;;;;;4987013;28;20120;-74
2021/12/19 13:25:28;;;;;;;23.63;8.05;;;8.30;99.90;;;;;;4999781;28;20050;-74
2021/12/19 13:28:03;;;;;;;28.10;12.45;;;8.30;99.90;;;;;;5004768;28;20060;-74
2021/12/19 13:30:30;;;;;;;19.08;5.90;;;8.30;99.90;;;;;;5005515;28;20072;-79
2021/12/19 13:32:56;;;;;;;43.83;27.17;;;8.30;99.90;;;;;;5008944;28;20101;-80
2021/12/19 13:35:42;;;;;;;23.65;6.88;;;8.20;99.90;;;;;;5007923;28;20056;-80
2021/12/19 13:38:09;;;;;;;21.75;4.50;;;8.20;99.90;;;;;;5002095;28;20038;-80
2021/12/19 13:40:51;;;;;;;20.40;3.95;;;8.20;99.90;;;;;;4995897;28;20084;-78
2021/12/19 13:43:38;;;;;;;18.95;3.08;;;8.20;99.90;;;;;;5010044;28;20046;-79
2021/12/19 13:46:08;;;;;;;19.50;3.50;;;8.20;99.90;;;;;;5008359;28;20053;-80
2021/12/19 13:48:57;;;;;;;15.85;3.05;;;8.10;99.90;;;;;;5004912;28;20045;-80
2021/12/19 13:51:34;;;;;;;19.45;3.85;;;8.10;99.90;;;;;;4992692;28;20038;-80
2021/12/19 13:54:02;;;;;;;18.05;3.78;;;8.10;99.90;;;;;;4999225;28;20042;-80
2021/12/19 13:56:33;;;;;;;20.55;4.20;;;8.10;99.90;;;;;;5002169;28;20070;-80
2021/12/19 13:59:05;;;;;;;20.33;3.40;;;8.10;99.90;;;;;;5004966;28;20651;-80
2021/12/19 14:01:35;;;;;;;25.67;3.80;;;8.10;99.90;;;;;;4991911;28;20049;-79
2021/12/19 14:04:24;;;;;;;17.67;3.90;;;8.10;99.90;;;;;;5007530;28;20420;-80
2021/12/19 14:06:56;;;;;;;24.10;3.88;;;8.10;99.90;;;;;;5004714;28;20069;-80